sensor_id;sensor_type;location;lat;lon;timestamp;pressure;altitude;pressure_sealevel;temperature
19040;BMP180;9652;49.014;12.052;2023-12-29T00:02:17;97912.00;;;9.60
19040;BMP180;9652;49.014;12.052;2023-12-29T00:04:44;97895.00;;;9.60
19040;BMP180;9652;49.014;12.052;2023-12-29T00:07:11;97899.00;;;9.60
19040;BMP180;9652;49.014;12.052;2023-12-29T00:09:39;97915.00;;;9.60
19040;BMP180;9652;49.014;12.052;2023-12-29T00:12:08;97917.00;;;9.50
19040;BMP180;9652;49.014;12.052;2023-12-29T00:14:38;97915.00;;;9.50
19040;BMP180;9652;49.014;12.052;2023-12-29T00:17:05;97915.00;;;9.50
19040;BMP180;9652;49.014;12.052;2023-12-29T00:19:33;97912.00;;;9.40
19040;BMP180;9652;49.014;12.052;2023-12-29T00:22:00;97904.00;;;9.40
19040;BMP180;9652;49.014;12.052;2023-12-29T00:24:29;97907.00;;;9.40
19040;BMP180;9652;49.014;12.052;2023-12-29T00:26:57;97901.00;;;9.30
19040;BMP180;9652;49.014;12.052;2023-12-29T00:29:24;97900.00;;;9.30
19040;BMP180;9652;49.014;12.052;2023-12-29T00:31:51;97897.00;;;9.30
19040;BMP180;9652;49.014;12.052;2023-12-29T00:34:18;97894.00;;;9.30
19040;BMP180;9652;49.014;12.052;2023-12-29T00:36:46;97892.00;;;9.20
19040;BMP180;9652;49.014;12.052;2023-12-29T00:39:12;97887.00;;;9.30
19040;BMP180;9652;49.014;12.052;2023-12-29T00:41:40;97889.00;;;9.20
19040;BMP180;9652;49.014;12.052;2023-12-29T00:44:07;97896.00;;;9.30
19040;BMP180;9652;49.014;12.052;2023-12-29T00:46:34;97889.00;;;9.20
19040;BMP180;9652;49.014;12.052;2023-12-29T00:49:01;97899.00;;;9.20
19040;BMP180;9652;49.014;12.052;2023-12-29T00:51:28;97889.00;;;9.20
19040;BMP180;9652;49.014;12.052;2023-12-29T00:53:56;97897.00;;;9.20
19040;BMP180;9652;49.014;12.052;2023-12-29T00:56:23;97906.00;;;9.20
19040;BMP180;9652;49.014;12.052;2023-12-29T00:58:50;97907.00;;;9.20
19040;BMP180;9652;49.014;12.052;2023-12-29T01:01:19;97904.00;;;9.20
19040;BMP180;9652;49.014;12.052;2023-12-29T01:03:46;97930.00;;;9.20
19040;BMP180;9652;49.014;12.052;2023-12-29T01:06:13;97911.00;;;9.20
19040;BMP180;9652;49.014;12.052;2023-12-29T01:08:40;97896.00;;;9.20
19040;BMP180;9652;49.014;12.052;2023-12-29T01:11:08;97900.00;;;9.20
19040;BMP180;9652;49.014;12.052;2023-12-29T01:13:35;97912.00;;;9.20
19040;BMP180;9652;49.014;12.052;2023-12-29T01:16:03;97906.00;;;9.20
19040;BMP180;9652;49.014;12.052;2023-12-29T01:18:31;97905.00;;;9.10
19040;BMP180;9652;49.014;12.052;2023-12-29T01:21:00;97920.00;;;9.10
19040;BMP180;9652;49.014;12.052;2023-12-29T01:23:28;97912.00;;;9.10
19040;BMP180;9652;49.014;12.052;2023-12-29T01:25:55;97919.00;;;9.10
19040;BMP180;9652;49.014;12.052;2023-12-29T01:28:23;97908.00;;;9.10
19040;BMP180;9652;49.014;12.052;2023-12-29T01:30:51;97920.00;;;9.10
19040;BMP180;9652;49.014;12.052;2023-12-29T01:33:18;97894.00;;;9.10
19040;BMP180;9652;49.014;12.052;2023-12-29T01:35:47;97901.00;;;9.20
19040;BMP180;9652;49.014;12.052;2023-12-29T01:38:14;97901.00;;;9.20
19040;BMP180;9652;49.014;12.052;2023-12-29T01:40:44;97894.00;;;9.20
19040;BMP180;9652;49.014;12.052;2023-12-29T01:43:13;97896.00;;;9.20
19040;BMP180;9652;49.014;12.052;2023-12-29T01:45:41;97875.00;;;9.30
19040;BMP180;9652;49.014;12.052;2023-12-29T01:48:09;97894.00;;;9.30
19040;BMP180;9652;49.014;12.052;2023-12-29T01:50:36;97881.00;;;9.40
19040;BMP180;9652;49.014;12.052;2023-12-29T01:53:05;97876.00;;;9.40
19040;BMP180;9652;49.014;12.052;2023-12-29T01:55:33;97882.00;;;9.40
19040;BMP180;9652;49.014;12.052;2023-12-29T01:58:01;97880.00;;;9.40
19040;BMP180;9652;49.014;12.052;2023-12-29T02:00:29;97876.00;;;9.50
19040;BMP180;9652;49.014;12.052;2023-12-29T02:02:59;97875.00;;;9.50
19040;BMP180;9652;49.014;12.052;2023-12-29T02:05:29;97860.00;;;9.50
19040;BMP180;9652;49.014;12.052;2023-12-29T02:07:58;97871.00;;;9.50
19040;BMP180;9652;49.014;12.052;2023-12-29T02:10:25;97877.00;;;9.50
19040;BMP180;9652;49.014;12.052;2023-12-29T02:12:52;97872.00;;;9.50
19040;BMP180;9652;49.014;12.052;2023-12-29T02:15:23;97884.00;;;9.50
19040;BMP180;9652;49.014;12.052;2023-12-29T02:17:59;97872.00;;;9.50
19040;BMP180;9652;49.014;12.052;2023-12-29T02:20:29;97874.00;;;9.50
19040;BMP180;9652;49.014;12.052;2023-12-29T02:22:56;97856.00;;;9.50
19040;BMP180;9652;49.014;12.052;2023-12-29T02:25:25;97873.00;;;9.50
19040;BMP180;9652;49.014;12.052;2023-12-29T02:27:57;97867.00;;;9.50
19040;BMP180;9652;49.014;12.052;2023-12-29T02:30:31;97862.00;;;9.50
19040;BMP180;9652;49.014;12.052;2023-12-29T02:33:05;97863.00;;;9.50
19040;BMP180;9652;49.014;12.052;2023-12-29T02:35:36;97846.00;;;9.50
19040;BMP180;9652;49.014;12.052;2023-12-29T02:38:04;97851.00;;;9.50
19040;BMP180;9652;49.014;12.052;2023-12-29T02:40:33;97819.00;;;9.40
19040;BMP180;9652;49.014;12.052;2023-12-29T02:43:00;97833.00;;;9.40
19040;BMP180;9652;49.014;12.052;2023-12-29T02:45:27;97827.00;;;9.40
19040;BMP180;9652;49.014;12.052;2023-12-29T02:47:55;97839.00;;;9.40
19040;BMP180;9652;49.014;12.052;2023-12-29T02:50:22;97833.00;;;9.40
19040;BMP180;9652;49.014;12.052;2023-12-29T02:52:49;97816.00;;;9.30
19040;BMP180;9652;49.014;12.052;2023-12-29T02:55:16;97804.00;;;9.30
19040;BMP180;9652;49.014;12.052;2023-12-29T02:57:44;97812.00;;;9.30
19040;BMP180;9652;49.014;12.052;2023-12-29T03:00:12;97821.00;;;9.30
19040;BMP180;9652;49.014;12.052;2023-12-29T03:02:40;97819.00;;;9.30
19040;BMP180;9652;49.014;12.052;2023-12-29T03:05:07;97823.00;;;8.80
19040;BMP180;9652;49.014;12.052;2023-12-29T03:07:35;97821.00;;;9.20
19040;BMP180;9652;49.014;12.052;2023-12-29T03:10:02;97817.00;;;9.20
19040;BMP180;9652;49.014;12.052;2023-12-29T03:12:29;97819.00;;;9.20
19040;BMP180;9652;49.014;12.052;2023-12-29T03:14:58;97830.00;;;9.10
19040;BMP180;9652;49.014;12.052;2023-12-29T03:17:26;97826.00;;;9.10
19040;BMP180;9652;49.014;12.052;2023-12-29T03:19:54;97829.00;;;9.10
19040;BMP180;9652;49.014;12.052;2023-12-29T03:22:21;97777.00;;;9.10
19040;BMP180;9652;49.014;12.052;2023-12-29T03:24:48;97810.00;;;9.10
19040;BMP180;9652;49.014;12.052;2023-12-29T03:27:16;97802.00;;;9.10
19040;BMP180;9652;49.014;12.052;2023-12-29T03:29:43;97796.00;;;9.10
19040;BMP180;9652;49.014;12.052;2023-12-29T03:32:11;97801.00;;;9.10
19040;BMP180;9652;49.014;12.052;2023-12-29T03:34:38;97799.00;;;9.10
19040;BMP180;9652;49.014;12.052;2023-12-29T03:37:05;97792.00;;;9.10
19040;BMP180;9652;49.014;12.052;2023-12-29T03:39:32;97731.00;;;9.10
19040;BMP180;9652;49.014;12.052;2023-12-29T03:42:01;97779.00;;;9.10
19040;BMP180;9652;49.014;12.052;2023-12-29T03:44:28;97798.00;;;9.10
19040;BMP180;9652;49.014;12.052;2023-12-29T03:46:55;97800.00;;;9.10
19040;BMP180;9652;49.014;12.052;2023-12-29T03:49:24;97819.00;;;9.10
19040;BMP180;9652;49.014;12.052;2023-12-29T03:51:51;97806.00;;;9.10
19040;BMP180;9652;49.014;12.052;2023-12-29T03:54:18;97798.00;;;9.10
19040;BMP180;9652;49.014;12.052;2023-12-29T03:56:47;97781.00;;;9.10
19040;BMP180;9652;49.014;12.052;2023-12-29T03:59:14;97801.00;;;9.10
19040;BMP180;9652;49.014;12.052;2023-12-29T04:01:41;97803.00;;;9.10
19040;BMP180;9652;49.014;12.052;2023-12-29T04:04:10;97786.00;;;9.10
19040;BMP180;9652;49.014;12.052;2023-12-29T04:06:38;97758.00;;;9.10
19040;BMP180;9652;49.014;12.052;2023-12-29T04:09:05;97793.00;;;9.10
19040;BMP180;9652;49.014;12.052;2023-12-29T04:11:33;97776.00;;;9.10
19040;BMP180;9652;49.014;12.052;2023-12-29T04:14:01;97770.00;;;9.10
19040;BMP180;9652;49.014;12.052;2023-12-29T04:16:28;97751.00;;;9.10
19040;BMP180;9652;49.014;12.052;2023-12-29T04:18:55;97752.00;;;9.10
19040;BMP180;9652;49.014;12.052;2023-12-29T04:21:22;97757.00;;;9.10
19040;BMP180;9652;49.014;12.052;2023-12-29T04:23:50;97753.00;;;9.10
19040;BMP180;9652;49.014;12.052;2023-12-29T04:26:17;97744.00;;;9.10
19040;BMP180;9652;49.014;12.052;2023-12-29T04:28:44;97742.00;;;9.20
19040;BMP180;9652;49.014;12.052;2023-12-29T04:31:11;97732.00;;;9.20
19040;BMP180;9652;49.014;12.052;2023-12-29T04:33:38;97737.00;;;9.20
19040;BMP180;9652;49.014;12.052;2023-12-29T04:36:06;97736.00;;;9.20
19040;BMP180;9652;49.014;12.052;2023-12-29T04:38:33;97731.00;;;9.20
19040;BMP180;9652;49.014;12.052;2023-12-29T04:41:02;97720.00;;;9.20
19040;BMP180;9652;49.014;12.052;2023-12-29T04:43:29;97739.00;;;9.20
19040;BMP180;9652;49.014;12.052;2023-12-29T04:45:57;97699.00;;;9.30
19040;BMP180;9652;49.014;12.052;2023-12-29T04:48:24;97729.00;;;9.30
19040;BMP180;9652;49.014;12.052;2023-12-29T04:50:51;97741.00;;;9.30
19040;BMP180;9652;49.014;12.052;2023-12-29T04:53:18;97737.00;;;9.30
19040;BMP180;9652;49.014;12.052;2023-12-29T04:55:45;97723.00;;;9.30
19040;BMP180;9652;49.014;12.052;2023-12-29T04:58:13;97751.00;;;9.30
19040;BMP180;9652;49.014;12.052;2023-12-29T05:00:40;97758.00;;;9.30
19040;BMP180;9652;49.014;12.052;2023-12-29T05:03:07;97741.00;;;9.30
19040;BMP180;9652;49.014;12.052;2023-12-29T05:05:34;97759.00;;;9.20
19040;BMP180;9652;49.014;12.052;2023-12-29T05:08:02;97769.00;;;9.30
19040;BMP180;9652;49.014;12.052;2023-12-29T05:10:29;97765.00;;;9.20
19040;BMP180;9652;49.014;12.052;2023-12-29T05:12:56;97757.00;;;9.20
19040;BMP180;9652;49.014;12.052;2023-12-29T05:15:24;97762.00;;;9.10
19040;BMP180;9652;49.014;12.052;2023-12-29T05:17:51;97777.00;;;9.20
19040;BMP180;9652;49.014;12.052;2023-12-29T05:20:19;97771.00;;;9.20
19040;BMP180;9652;49.014;12.052;2023-12-29T05:22:46;97765.00;;;9.10
19040;BMP180;9652;49.014;12.052;2023-12-29T05:25:13;97664.00;;;9.10
19040;BMP180;9652;49.014;12.052;2023-12-29T05:27:40;97761.00;;;9.10
19040;BMP180;9652;49.014;12.052;2023-12-29T05:30:09;97758.00;;;9.10
19040;BMP180;9652;49.014;12.052;2023-12-29T05:32:37;97739.00;;;9.10
19040;BMP180;9652;49.014;12.052;2023-12-29T05:35:05;97754.00;;;9.10
19040;BMP180;9652;49.014;12.052;2023-12-29T05:37:32;97775.00;;;9.00
19040;BMP180;9652;49.014;12.052;2023-12-29T05:39:59;97770.00;;;9.10
19040;BMP180;9652;49.014;12.052;2023-12-29T05:42:26;97739.00;;;9.10
19040;BMP180;9652;49.014;12.052;2023-12-29T05:44:53;97761.00;;;9.10
19040;BMP180;9652;49.014;12.052;2023-12-29T05:47:20;97757.00;;;9.10
19040;BMP180;9652;49.014;12.052;2023-12-29T05:49:49;97761.00;;;9.10
19040;BMP180;9652;49.014;12.052;2023-12-29T05:52:16;97750.00;;;9.10
19040;BMP180;9652;49.014;12.052;2023-12-29T05:54:43;97760.00;;;9.10
19040;BMP180;9652;49.014;12.052;2023-12-29T05:57:10;97772.00;;;9.10
19040;BMP180;9652;49.014;12.052;2023-12-29T05:59:38;97780.00;;;9.10
19040;BMP180;9652;49.014;12.052;2023-12-29T06:02:05;97768.00;;;9.10
19040;BMP180;9652;49.014;12.052;2023-12-29T06:04:32;97778.00;;;9.10
19040;BMP180;9652;49.014;12.052;2023-12-29T06:07:00;97765.00;;;9.00
19040;BMP180;9652;49.014;12.052;2023-12-29T06:09:27;97769.00;;;9.00
19040;BMP180;9652;49.014;12.052;2023-12-29T06:11:54;97775.00;;;9.00
19040;BMP180;9652;49.014;12.052;2023-12-29T06:14:21;97782.00;;;9.00
19040;BMP180;9652;49.014;12.052;2023-12-29T06:16:48;97786.00;;;9.00
19040;BMP180;9652;49.014;12.052;2023-12-29T06:19:15;97761.00;;;9.00
19040;BMP180;9652;49.014;12.052;2023-12-29T06:21:42;97774.00;;;8.90
19040;BMP180;9652;49.014;12.052;2023-12-29T06:24:11;97777.00;;;8.90
19040;BMP180;9652;49.014;12.052;2023-12-29T06:26:38;97806.00;;;8.90
19040;BMP180;9652;49.014;12.052;2023-12-29T06:29:07;97792.00;;;8.90
19040;BMP180;9652;49.014;12.052;2023-12-29T06:31:34;97785.00;;;9.00
19040;BMP180;9652;49.014;12.052;2023-12-29T06:34:02;97786.00;;;9.00
19040;BMP180;9652;49.014;12.052;2023-12-29T06:36:29;97799.00;;;9.00
19040;BMP180;9652;49.014;12.052;2023-12-29T06:38:56;97799.00;;;9.10
19040;BMP180;9652;49.014;12.052;2023-12-29T06:41:24;97805.00;;;9.10
19040;BMP180;9652;49.014;12.052;2023-12-29T06:43:51;97801.00;;;9.20
19040;BMP180;9652;49.014;12.052;2023-12-29T06:46:18;97800.00;;;9.20
19040;BMP180;9652;49.014;12.052;2023-12-29T06:48:45;97789.00;;;9.30
19040;BMP180;9652;49.014;12.052;2023-12-29T06:51:16;97786.00;;;9.30
19040;BMP180;9652;49.014;12.052;2023-12-29T06:53:45;97791.00;;;9.30
19040;BMP180;9652;49.014;12.052;2023-12-29T06:56:14;97800.00;;;9.40
19040;BMP180;9652;49.014;12.052;2023-12-29T06:58:43;97791.00;;;9.40
19040;BMP180;9652;49.014;12.052;2023-12-29T07:01:10;97796.00;;;9.40
19040;BMP180;9652;49.014;12.052;2023-12-29T07:03:37;97803.00;;;9.50
19040;BMP180;9652;49.014;12.052;2023-12-29T07:06:04;97788.00;;;9.50
19040;BMP180;9652;49.014;12.052;2023-12-29T07:08:31;97789.00;;;9.50
19040;BMP180;9652;49.014;12.052;2023-12-29T07:10:59;97802.00;;;9.50
19040;BMP180;9652;49.014;12.052;2023-12-29T07:13:26;97798.00;;;9.50
19040;BMP180;9652;49.014;12.052;2023-12-29T07:15:54;97784.00;;;9.60
19040;BMP180;9652;49.014;12.052;2023-12-29T07:18:22;97783.00;;;9.60
19040;BMP180;9652;49.014;12.052;2023-12-29T07:20:49;97789.00;;;9.60
19040;BMP180;9652;49.014;12.052;2023-12-29T07:23:16;97793.00;;;9.70
19040;BMP180;9652;49.014;12.052;2023-12-29T07:25:43;97804.00;;;9.70
19040;BMP180;9652;49.014;12.052;2023-12-29T07:28:10;97808.00;;;9.70
19040;BMP180;9652;49.014;12.052;2023-12-29T07:30:37;97807.00;;;9.80
19040;BMP180;9652;49.014;12.052;2023-12-29T07:33:06;97816.00;;;9.80
19040;BMP180;9652;49.014;12.052;2023-12-29T07:35:33;97812.00;;;9.80
19040;BMP180;9652;49.014;12.052;2023-12-29T07:38:00;97804.00;;;9.90
19040;BMP180;9652;49.014;12.052;2023-12-29T07:40:27;97803.00;;;9.90
19040;BMP180;9652;49.014;12.052;2023-12-29T07:42:54;97801.00;;;9.90
19040;BMP180;9652;49.014;12.052;2023-12-29T07:45:21;97789.00;;;9.90
19040;BMP180;9652;49.014;12.052;2023-12-29T07:47:48;97791.00;;;9.90
19040;BMP180;9652;49.014;12.052;2023-12-29T07:50:16;97739.00;;;9.90
19040;BMP180;9652;49.014;12.052;2023-12-29T07:52:44;97777.00;;;9.90
19040;BMP180;9652;49.014;12.052;2023-12-29T07:55:11;97788.00;;;9.90
19040;BMP180;9652;49.014;12.052;2023-12-29T07:57:38;97789.00;;;9.80
19040;BMP180;9652;49.014;12.052;2023-12-29T08:00:07;97801.00;;;9.80
19040;BMP180;9652;49.014;12.052;2023-12-29T08:02:40;97799.00;;;9.50
19040;BMP180;9652;49.014;12.052;2023-12-29T08:05:08;97805.00;;;9.80
19040;BMP180;9652;49.014;12.052;2023-12-29T08:07:36;97814.00;;;9.90
19040;BMP180;9652;49.014;12.052;2023-12-29T08:10:05;97812.00;;;9.90
19040;BMP180;9652;49.014;12.052;2023-12-29T08:12:32;97786.00;;;9.90
19040;BMP180;9652;49.014;12.052;2023-12-29T08:15:00;97812.00;;;9.90
19040;BMP180;9652;49.014;12.052;2023-12-29T08:17:27;97794.00;;;10.00
19040;BMP180;9652;49.014;12.052;2023-12-29T08:19:55;97797.00;;;10.10
19040;BMP180;9652;49.014;12.052;2023-12-29T08:22:22;97800.00;;;10.10
19040;BMP180;9652;49.014;12.052;2023-12-29T08:24:50;97810.00;;;10.10
19040;BMP180;9652;49.014;12.052;2023-12-29T08:27:24;97798.00;;;10.20
19040;BMP180;9652;49.014;12.052;2023-12-29T08:29:51;97799.00;;;10.20
19040;BMP180;9652;49.014;12.052;2023-12-29T08:32:20;97796.00;;;10.30
19040;BMP180;9652;49.014;12.052;2023-12-29T08:34:48;97796.00;;;10.30
19040;BMP180;9652;49.014;12.052;2023-12-29T08:37:15;97780.00;;;10.40
19040;BMP180;9652;49.014;12.052;2023-12-29T08:39:46;97792.00;;;10.40
19040;BMP180;9652;49.014;12.052;2023-12-29T08:42:14;97797.00;;;10.40
19040;BMP180;9652;49.014;12.052;2023-12-29T08:44:41;97801.00;;;10.40
19040;BMP180;9652;49.014;12.052;2023-12-29T08:47:09;97807.00;;;10.40
19040;BMP180;9652;49.014;12.052;2023-12-29T08:49:36;97801.00;;;10.40
19040;BMP180;9652;49.014;12.052;2023-12-29T08:52:04;97808.00;;;10.50
19040;BMP180;9652;49.014;12.052;2023-12-29T08:54:31;97809.00;;;10.50
19040;BMP180;9652;49.014;12.052;2023-12-29T08:56:58;97826.00;;;10.50
19040;BMP180;9652;49.014;12.052;2023-12-29T08:59:26;97822.00;;;10.50
19040;BMP180;9652;49.014;12.052;2023-12-29T09:01:53;97805.00;;;10.60
19040;BMP180;9652;49.014;12.052;2023-12-29T09:04:21;97835.00;;;10.60
19040;BMP180;9652;49.014;12.052;2023-12-29T09:06:48;97832.00;;;10.60
19040;BMP180;9652;49.014;12.052;2023-12-29T09:09:15;97833.00;;;10.70
19040;BMP180;9652;49.014;12.052;2023-12-29T09:11:42;97837.00;;;10.80
19040;BMP180;9652;49.014;12.052;2023-12-29T09:14:09;97847.00;;;10.90
19040;BMP180;9652;49.014;12.052;2023-12-29T09:16:38;97846.00;;;10.90
19040;BMP180;9652;49.014;12.052;2023-12-29T09:19:06;97845.00;;;11.00
19040;BMP180;9652;49.014;12.052;2023-12-29T09:21:33;97839.00;;;11.00
19040;BMP180;9652;49.014;12.052;2023-12-29T09:24:00;97820.00;;;11.10
19040;BMP180;9652;49.014;12.052;2023-12-29T09:26:27;97845.00;;;11.20
19040;BMP180;9652;49.014;12.052;2023-12-29T09:28:54;97840.00;;;11.20
19040;BMP180;9652;49.014;12.052;2023-12-29T09:31:21;97838.00;;;11.30
19040;BMP180;9652;49.014;12.052;2023-12-29T09:33:50;97808.00;;;11.30
19040;BMP180;9652;49.014;12.052;2023-12-29T09:36:17;97832.00;;;11.40
19040;BMP180;9652;49.014;12.052;2023-12-29T09:38:44;97829.00;;;11.50
19040;BMP180;9652;49.014;12.052;2023-12-29T09:41:15;97832.00;;;11.50
19040;BMP180;9652;49.014;12.052;2023-12-29T09:43:48;97845.00;;;11.60
19040;BMP180;9652;49.014;12.052;2023-12-29T09:46:17;97843.00;;;11.60
19040;BMP180;9652;49.014;12.052;2023-12-29T09:48:46;97844.00;;;11.60
19040;BMP180;9652;49.014;12.052;2023-12-29T09:51:15;97838.00;;;11.70
19040;BMP180;9652;49.014;12.052;2023-12-29T09:53:43;97841.00;;;11.70
19040;BMP180;9652;49.014;12.052;2023-12-29T09:56:12;97842.00;;;11.70
19040;BMP180;9652;49.014;12.052;2023-12-29T09:58:41;97849.00;;;11.80
19040;BMP180;9652;49.014;12.052;2023-12-29T10:01:08;97849.00;;;11.90
19040;BMP180;9652;49.014;12.052;2023-12-29T10:03:35;97833.00;;;11.90
19040;BMP180;9652;49.014;12.052;2023-12-29T10:06:06;97815.00;;;12.00
19040;BMP180;9652;49.014;12.052;2023-12-29T10:08:37;97834.00;;;12.00
19040;BMP180;9652;49.014;12.052;2023-12-29T10:11:07;97829.00;;;12.10
19040;BMP180;9652;49.014;12.052;2023-12-29T10:13:35;97837.00;;;12.20
19040;BMP180;9652;49.014;12.052;2023-12-29T10:16:15;97841.00;;;12.30
19040;BMP180;9652;49.014;12.052;2023-12-29T10:18:57;97832.00;;;12.30
19040;BMP180;9652;49.014;12.052;2023-12-29T10:21:29;97818.00;;;12.40
19040;BMP180;9652;49.014;12.052;2023-12-29T10:24:12;97800.00;;;12.40
19040;BMP180;9652;49.014;12.052;2023-12-29T10:26:43;97813.00;;;12.50
19040;BMP180;9652;49.014;12.052;2023-12-29T10:29:12;97800.00;;;12.60
19040;BMP180;9652;49.014;12.052;2023-12-29T10:31:39;97808.00;;;12.70
19040;BMP180;9652;49.014;12.052;2023-12-29T10:34:20;97811.00;;;12.70
19040;BMP180;9652;49.014;12.052;2023-12-29T10:36:48;97802.00;;;12.70
19040;BMP180;9652;49.014;12.052;2023-12-29T10:39:17;97784.00;;;12.70
19040;BMP180;9652;49.014;12.052;2023-12-29T10:41:44;97787.00;;;12.80
19040;BMP180;9652;49.014;12.052;2023-12-29T10:44:11;97803.00;;;12.90
19040;BMP180;9652;49.014;12.052;2023-12-29T10:46:38;97786.00;;;12.90
19040;BMP180;9652;49.014;12.052;2023-12-29T10:49:09;97794.00;;;13.00
19040;BMP180;9652;49.014;12.052;2023-12-29T10:51:37;97772.00;;;13.10
19040;BMP180;9652;49.014;12.052;2023-12-29T10:54:05;97785.00;;;13.20
19040;BMP180;9652;49.014;12.052;2023-12-29T10:56:33;97774.00;;;13.20
19040;BMP180;9652;49.014;12.052;2023-12-29T10:59:02;97755.00;;;13.30
19040;BMP180;9652;49.014;12.052;2023-12-29T11:01:30;97770.00;;;13.30
19040;BMP180;9652;49.014;12.052;2023-12-29T11:04:01;97769.00;;;13.30
19040;BMP180;9652;49.014;12.052;2023-12-29T11:06:29;97759.00;;;13.40
19040;BMP180;9652;49.014;12.052;2023-12-29T11:08:57;97760.00;;;13.50
19040;BMP180;9652;49.014;12.052;2023-12-29T11:11:25;97748.00;;;13.50
19040;BMP180;9652;49.014;12.052;2023-12-29T11:13:55;97746.00;;;13.50
19040;BMP180;9652;49.014;12.052;2023-12-29T11:16:23;97756.00;;;13.60
19040;BMP180;9652;49.014;12.052;2023-12-29T11:18:52;97767.00;;;13.60
19040;BMP180;9652;49.014;12.052;2023-12-29T11:21:22;97732.00;;;13.70
19040;BMP180;9652;49.014;12.052;2023-12-29T11:23:50;97714.00;;;13.70
19040;BMP180;9652;49.014;12.052;2023-12-29T11:26:18;97732.00;;;13.70
19040;BMP180;9652;49.014;12.052;2023-12-29T11:28:46;97740.00;;;13.70
19040;BMP180;9652;49.014;12.052;2023-12-29T11:31:16;97736.00;;;13.70
19040;BMP180;9652;49.014;12.052;2023-12-29T11:33:50;97720.00;;;13.70
19040;BMP180;9652;49.014;12.052;2023-12-29T11:36:23;97725.00;;;13.80
19040;BMP180;9652;49.014;12.052;2023-12-29T11:38:58;97714.00;;;13.80
19040;BMP180;9652;49.014;12.052;2023-12-29T11:41:45;97713.00;;;13.80
19040;BMP180;9652;49.014;12.052;2023-12-29T11:44:25;97728.00;;;13.80
19040;BMP180;9652;49.014;12.052;2023-12-29T11:46:56;97726.00;;;13.80
19040;BMP180;9652;49.014;12.052;2023-12-29T11:49:23;97596.00;;;13.80
19040;BMP180;9652;49.014;12.052;2023-12-29T11:51:50;97726.00;;;13.80
19040;BMP180;9652;49.014;12.052;2023-12-29T11:54:23;97711.00;;;13.80
19040;BMP180;9652;49.014;12.052;2023-12-29T11:56:52;97714.00;;;13.80
19040;BMP180;9652;49.014;12.052;2023-12-29T11:59:20;97708.00;;;13.80
19040;BMP180;9652;49.014;12.052;2023-12-29T12:01:50;97706.00;;;13.90
19040;BMP180;9652;49.014;12.052;2023-12-29T12:04:38;97700.00;;;13.90
19040;BMP180;9652;49.014;12.052;2023-12-29T12:07:08;97690.00;;;13.90
19040;BMP180;9652;49.014;12.052;2023-12-29T12:09:36;97699.00;;;13.90
19040;BMP180;9652;49.014;12.052;2023-12-29T12:12:04;97684.00;;;13.90
19040;BMP180;9652;49.014;12.052;2023-12-29T12:14:49;97691.00;;;13.90
19040;BMP180;9652;49.014;12.052;2023-12-29T12:17:33;97681.00;;;13.90
19040;BMP180;9652;49.014;12.052;2023-12-29T12:20:07;97679.00;;;14.00
19040;BMP180;9652;49.014;12.052;2023-12-29T12:22:36;97671.00;;;14.00
19040;BMP180;9652;49.014;12.052;2023-12-29T12:25:05;97674.00;;;14.00
19040;BMP180;9652;49.014;12.052;2023-12-29T12:27:32;97670.00;;;14.00
19040;BMP180;9652;49.014;12.052;2023-12-29T12:29:59;97667.00;;;14.00
19040;BMP180;9652;49.014;12.052;2023-12-29T12:32:28;97658.00;;;14.00
19040;BMP180;9652;49.014;12.052;2023-12-29T12:34:56;97657.00;;;14.00
19040;BMP180;9652;49.014;12.052;2023-12-29T12:37:26;97661.00;;;14.00
19040;BMP180;9652;49.014;12.052;2023-12-29T12:39:55;97664.00;;;13.40
19040;BMP180;9652;49.014;12.052;2023-12-29T12:42:23;97660.00;;;14.00
19040;BMP180;9652;49.014;12.052;2023-12-29T12:44:56;97666.00;;;14.00
19040;BMP180;9652;49.014;12.052;2023-12-29T12:47:37;97673.00;;;14.10
19040;BMP180;9652;49.014;12.052;2023-12-29T12:50:08;97674.00;;;14.10
19040;BMP180;9652;49.014;12.052;2023-12-29T12:52:39;97666.00;;;14.10
19040;BMP180;9652;49.014;12.052;2023-12-29T12:55:09;97674.00;;;14.10
19040;BMP180;9652;49.014;12.052;2023-12-29T12:57:37;97671.00;;;14.20
19040;BMP180;9652;49.014;12.052;2023-12-29T13:00:07;97674.00;;;14.20
19040;BMP180;9652;49.014;12.052;2023-12-29T13:02:36;97674.00;;;14.20
19040;BMP180;9652;49.014;12.052;2023-12-29T13:05:05;97663.00;;;14.20
19040;BMP180;9652;49.014;12.052;2023-12-29T13:07:34;97673.00;;;14.20
19040;BMP180;9652;49.014;12.052;2023-12-29T13:10:04;97675.00;;;14.20
19040;BMP180;9652;49.014;12.052;2023-12-29T13:12:31;97675.00;;;14.20
19040;BMP180;9652;49.014;12.052;2023-12-29T13:15:05;97665.00;;;14.20
19040;BMP180;9652;49.014;12.052;2023-12-29T13:17:34;97669.00;;;14.20
19040;BMP180;9652;49.014;12.052;2023-12-29T13:20:01;97698.00;;;14.20
19040;BMP180;9652;49.014;12.052;2023-12-29T13:22:30;97685.00;;;14.20
19040;BMP180;9652;49.014;12.052;2023-12-29T13:24:58;97684.00;;;14.20
19040;BMP180;9652;49.014;12.052;2023-12-29T13:27:27;97677.00;;;14.10
19040;BMP180;9652;49.014;12.052;2023-12-29T13:29:54;97685.00;;;14.10
19040;BMP180;9652;49.014;12.052;2023-12-29T13:32:23;97679.00;;;14.10
19040;BMP180;9652;49.014;12.052;2023-12-29T13:35:02;97683.00;;;14.00
19040;BMP180;9652;49.014;12.052;2023-12-29T13:37:37;97670.00;;;14.00
19040;BMP180;9652;49.014;12.052;2023-12-29T13:40:15;97645.00;;;13.90
19040;BMP180;9652;49.014;12.052;2023-12-29T13:42:48;97681.00;;;13.90
19040;BMP180;9652;49.014;12.052;2023-12-29T13:45:18;97673.00;;;13.90
19040;BMP180;9652;49.014;12.052;2023-12-29T13:47:46;97668.00;;;13.80
19040;BMP180;9652;49.014;12.052;2023-12-29T13:50:14;97672.00;;;13.80
19040;BMP180;9652;49.014;12.052;2023-12-29T13:52:41;97675.00;;;13.70
19040;BMP180;9652;49.014;12.052;2023-12-29T13:55:08;97674.00;;;13.70
19040;BMP180;9652;49.014;12.052;2023-12-29T13:57:36;97660.00;;;13.70
19040;BMP180;9652;49.014;12.052;2023-12-29T14:00:19;97674.00;;;13.60
19040;BMP180;9652;49.014;12.052;2023-12-29T14:02:58;97676.00;;;13.60
19040;BMP180;9652;49.014;12.052;2023-12-29T14:05:32;97672.00;;;13.60
19040;BMP180;9652;49.014;12.052;2023-12-29T14:08:16;97675.00;;;13.50
19040;BMP180;9652;49.014;12.052;2023-12-29T14:10:44;97684.00;;;13.50
19040;BMP180;9652;49.014;12.052;2023-12-29T14:13:13;97680.00;;;13.50
19040;BMP180;9652;49.014;12.052;2023-12-29T14:15:44;97671.00;;;13.50
19040;BMP180;9652;49.014;12.052;2023-12-29T14:18:52;97687.00;;;13.40
19040;BMP180;9652;49.014;12.052;2023-12-29T14:21:22;97658.00;;;13.40
19040;BMP180;9652;49.014;12.052;2023-12-29T14:24:08;97688.00;;;13.30
19040;BMP180;9652;49.014;12.052;2023-12-29T14:26:36;97682.00;;;13.30